sensor_id;sensor_type;location;lat;lon;timestamp;pressure;altitude;pressure_sealevel;temperature
10869;BMP180;62667;48.698;8.762;2022-11-28T00:01:23;95769.00;;;4.70
10869;BMP180;62667;48.698;8.762;2022-11-28T00:03:50;95756.00;;;4.70
10869;BMP180;62667;48.698;8.762;2022-11-28T00:06:17;95757.00;;;4.70
10869;BMP180;62667;48.698;8.762;2022-11-28T00:08:47;95752.00;;;4.80
10869;BMP180;62667;48.698;8.762;2022-11-28T00:11:15;95750.00;;;4.80
10869;BMP180;62667;48.698;8.762;2022-11-28T00:13:42;95735.00;;;4.90
10869;BMP180;62667;48.698;8.762;2022-11-28T00:16:14;95751.00;;;4.90
10869;BMP180;62667;48.698;8.762;2022-11-28T00:18:41;95753.00;;;5.00
10869;BMP180;62667;48.698;8.762;2022-11-28T00:21:10;95743.00;;;4.90
10869;BMP180;62667;48.698;8.762;2022-11-28T00:23:37;95742.00;;;5.00
10869;BMP180;62667;48.698;8.762;2022-11-28T00:26:08;95741.00;;;5.00
10869;BMP180;62667;48.698;8.762;2022-11-28T00:28:37;95741.00;;;5.10
10869;BMP180;62667;48.698;8.762;2022-11-28T00:31:04;95736.00;;;5.10
10869;BMP180;62667;48.698;8.762;2022-11-28T00:33:31;95717.00;;;4.90
10869;BMP180;62667;48.698;8.762;2022-11-28T00:35:59;95725.00;;;5.00
10869;BMP180;62667;48.698;8.762;2022-11-28T00:38:27;95737.00;;;4.90
10869;BMP180;62667;48.698;8.762;2022-11-28T00:41:01;95738.00;;;4.80
10869;BMP180;62667;48.698;8.762;2022-11-28T00:43:28;95729.00;;;4.70
10869;BMP180;62667;48.698;8.762;2022-11-28T00:45:57;95725.00;;;4.60
10869;BMP180;62667;48.698;8.762;2022-11-28T00:48:25;95707.00;;;4.50
10869;BMP180;62667;48.698;8.762;2022-11-28T00:50:52;95723.00;;;4.50
10869;BMP180;62667;48.698;8.762;2022-11-28T00:53:19;95720.00;;;4.50
10869;BMP180;62667;48.698;8.762;2022-11-28T00:55:45;95711.00;;;4.50
10869;BMP180;62667;48.698;8.762;2022-11-28T00:58:14;95709.00;;;4.50
10869;BMP180;62667;48.698;8.762;2022-11-28T01:00:41;95707.00;;;4.50
10869;BMP180;62667;48.698;8.762;2022-11-28T01:03:07;95699.00;;;4.50
10869;BMP180;62667;48.698;8.762;2022-11-28T01:05:39;95697.00;;;4.50
10869;BMP180;62667;48.698;8.762;2022-11-28T01:08:09;95715.00;;;4.50
10869;BMP180;62667;48.698;8.762;2022-11-28T01:10:39;95691.00;;;4.50
10869;BMP180;62667;48.698;8.762;2022-11-28T01:13:07;95693.00;;;4.40
10869;BMP180;62667;48.698;8.762;2022-11-28T01:15:34;95707.00;;;4.50
10869;BMP180;62667;48.698;8.762;2022-11-28T01:18:01;95719.00;;;4.40
10869;BMP180;62667;48.698;8.762;2022-11-28T01:20:30;95724.00;;;4.40
10869;BMP180;62667;48.698;8.762;2022-11-28T01:22:56;95716.00;;;4.40
10869;BMP180;62667;48.698;8.762;2022-11-28T01:25:23;95708.00;;;4.40
10869;BMP180;62667;48.698;8.762;2022-11-28T01:27:50;95698.00;;;4.40
10869;BMP180;62667;48.698;8.762;2022-11-28T01:30:17;95696.00;;;4.30
10869;BMP180;62667;48.698;8.762;2022-11-28T01:32:45;95698.00;;;4.30
10869;BMP180;62667;48.698;8.762;2022-11-28T01:35:12;95700.00;;;4.40
10869;BMP180;62667;48.698;8.762;2022-11-28T01:37:38;95715.00;;;4.40
10869;BMP180;62667;48.698;8.762;2022-11-28T01:40:09;95698.00;;;4.40
10869;BMP180;62667;48.698;8.762;2022-11-28T01:42:36;95709.00;;;4.40
10869;BMP180;62667;48.698;8.762;2022-11-28T01:45:21;95691.00;;;4.30
10869;BMP180;62667;48.698;8.762;2022-11-28T01:47:55;95686.00;;;4.30
10869;BMP180;62667;48.698;8.762;2022-11-28T01:50:25;95676.00;;;4.30
10869;BMP180;62667;48.698;8.762;2022-11-28T01:52:57;95676.00;;;4.30
10869;BMP180;62667;48.698;8.762;2022-11-28T01:55:30;95663.00;;;4.30
10869;BMP180;62667;48.698;8.762;2022-11-28T01:57:59;95657.00;;;4.30
10869;BMP180;62667;48.698;8.762;2022-11-28T02:00:26;95629.00;;;4.30
10869;BMP180;62667;48.698;8.762;2022-11-28T02:02:59;95661.00;;;4.30
10869;BMP180;62667;48.698;8.762;2022-11-28T02:05:28;95658.00;;;4.20
10869;BMP180;62667;48.698;8.762;2022-11-28T02:07:54;95658.00;;;4.20
10869;BMP180;62667;48.698;8.762;2022-11-28T02:10:26;95657.00;;;4.20
10869;BMP180;62667;48.698;8.762;2022-11-28T02:13:25;95659.00;;;4.10
10869;BMP180;62667;48.698;8.762;2022-11-28T02:16:19;95639.00;;;4.20
10869;BMP180;62667;48.698;8.762;2022-11-28T02:19:05;95652.00;;;4.20
10869;BMP180;62667;48.698;8.762;2022-11-28T02:21:56;95647.00;;;4.10
10869;BMP180;62667;48.698;8.762;2022-11-28T02:24:55;95646.00;;;4.10
10869;BMP180;62667;48.698;8.762;2022-11-28T02:28:12;95652.00;;;4.10
10869;BMP180;62667;48.698;8.762;2022-11-28T02:30:57;95647.00;;;4.10
10869;BMP180;62667;48.698;8.762;2022-11-28T02:33:33;95636.00;;;4.10
10869;BMP180;62667;48.698;8.762;2022-11-28T02:36:09;95641.00;;;4.10
10869;BMP180;62667;48.698;8.762;2022-11-28T02:39:02;95631.00;;;4.20
10869;BMP180;62667;48.698;8.762;2022-11-28T02:41:42;95622.00;;;4.10
10869;BMP180;62667;48.698;8.762;2022-11-28T02:44:15;95616.00;;;4.10
10869;BMP180;62667;48.698;8.762;2022-11-28T02:46:51;95618.00;;;4.10
10869;BMP180;62667;48.698;8.762;2022-11-28T02:49:28;95618.00;;;4.10
10869;BMP180;62667;48.698;8.762;2022-11-28T02:52:02;95610.00;;;4.10
10869;BMP180;62667;48.698;8.762;2022-11-28T02:54:30;95625.00;;;4.10
10869;BMP180;62667;48.698;8.762;2022-11-28T02:56:57;95623.00;;;4.10
10869;BMP180;62667;48.698;8.762;2022-11-28T02:59:43;95611.00;;;4.10
10869;BMP180;62667;48.698;8.762;2022-11-28T03:02:15;95619.00;;;4.10
10869;BMP180;62667;48.698;8.762;2022-11-28T03:04:55;95614.00;;;4.00
10869;BMP180;62667;48.698;8.762;2022-11-28T03:07:49;95613.00;;;4.00
10869;BMP180;62667;48.698;8.762;2022-11-28T03:10:28;95602.00;;;4.10
10869;BMP180;62667;48.698;8.762;2022-11-28T03:13:09;95605.00;;;4.10
10869;BMP180;62667;48.698;8.762;2022-11-28T03:15:53;95610.00;;;4.10
10869;BMP180;62667;48.698;8.762;2022-11-28T03:18:27;95602.00;;;4.10
10869;BMP180;62667;48.698;8.762;2022-11-28T03:21:09;95613.00;;;4.10
10869;BMP180;62667;48.698;8.762;2022-11-28T03:23:45;95601.00;;;4.10
10869;BMP180;62667;48.698;8.762;2022-11-28T03:26:22;95596.00;;;4.10
10869;BMP180;62667;48.698;8.762;2022-11-28T03:29:00;95609.00;;;4.10
10869;BMP180;62667;48.698;8.762;2022-11-28T03:31:34;95603.00;;;4.20
10869;BMP180;62667;48.698;8.762;2022-11-28T03:34:05;95600.00;;;4.10
10869;BMP180;62667;48.698;8.762;2022-11-28T03:36:42;95605.00;;;4.10
10869;BMP180;62667;48.698;8.762;2022-11-28T03:39:13;95604.00;;;4.10
10869;BMP180;62667;48.698;8.762;2022-11-28T03:41:48;95595.00;;;4.20
10869;BMP180;62667;48.698;8.762;2022-11-28T03:44:25;95605.00;;;4.10
10869;BMP180;62667;48.698;8.762;2022-11-28T03:46:56;95599.00;;;4.10
10869;BMP180;62667;48.698;8.762;2022-11-28T03:49:28;95594.00;;;4.10
10869;BMP180;62667;48.698;8.762;2022-11-28T03:52:02;95582.00;;;4.10
10869;BMP180;62667;48.698;8.762;2022-11-28T03:54:34;95600.00;;;4.10
10869;BMP180;62667;48.698;8.762;2022-11-28T03:57:11;95586.00;;;4.10
10869;BMP180;62667;48.698;8.762;2022-11-28T03:59:44;95584.00;;;4.10
10869;BMP180;62667;48.698;8.762;2022-11-28T04:02:21;95582.00;;;4.10
10869;BMP180;62667;48.698;8.762;2022-11-28T04:04:59;95586.00;;;4.10
10869;BMP180;62667;48.698;8.762;2022-11-28T04:07:35;95582.00;;;4.10
10869;BMP180;62667;48.698;8.762;2022-11-28T04:10:12;95581.00;;;4.10
10869;BMP180;62667;48.698;8.762;2022-11-28T04:12:52;95586.00;;;4.00
10869;BMP180;62667;48.698;8.762;2022-11-28T04:15:27;95580.00;;;4.00
10869;BMP180;62667;48.698;8.762;2022-11-28T04:18:03;95571.00;;;4.00
10869;BMP180;62667;48.698;8.762;2022-11-28T04:20:41;95573.00;;;4.00
10869;BMP180;62667;48.698;8.762;2022-11-28T04:23:13;95563.00;;;4.00
10869;BMP180;62667;48.698;8.762;2022-11-28T04:25:49;95566.00;;;4.00
10869;BMP180;62667;48.698;8.762;2022-11-28T04:28:22;95574.00;;;3.90
10869;BMP180;62667;48.698;8.762;2022-11-28T04:30:54;95567.00;;;3.80
10869;BMP180;62667;48.698;8.762;2022-11-28T04:33:24;95568.00;;;3.80
10869;BMP180;62667;48.698;8.762;2022-11-28T04:35:55;95565.00;;;3.90
10869;BMP180;62667;48.698;8.762;2022-11-28T04:38:25;95567.00;;;3.90
10869;BMP180;62667;48.698;8.762;2022-11-28T04:41:00;95566.00;;;3.60
10869;BMP180;62667;48.698;8.762;2022-11-28T04:43:32;95562.00;;;3.70
10869;BMP180;62667;48.698;8.762;2022-11-28T04:46:06;95559.00;;;3.70
10869;BMP180;62667;48.698;8.762;2022-11-28T04:48:34;95568.00;;;3.70
10869;BMP180;62667;48.698;8.762;2022-11-28T04:51:13;95569.00;;;3.70
10869;BMP180;62667;48.698;8.762;2022-11-28T04:53:51;95571.00;;;3.60
10869;BMP180;62667;48.698;8.762;2022-11-28T04:56:26;95565.00;;;3.70
10869;BMP180;62667;48.698;8.762;2022-11-28T04:58:54;95569.00;;;3.60
10869;BMP180;62667;48.698;8.762;2022-11-28T05:01:24;95574.00;;;3.70
10869;BMP180;62667;48.698;8.762;2022-11-28T05:03:53;95579.00;;;3.70
10869;BMP180;62667;48.698;8.762;2022-11-28T05:06:25;95574.00;;;3.80
10869;BMP180;62667;48.698;8.762;2022-11-28T05:08:53;95580.00;;;3.80
10869;BMP180;62667;48.698;8.762;2022-11-28T05:11:20;95571.00;;;3.80
10869;BMP180;62667;48.698;8.762;2022-11-28T05:13:46;95576.00;;;3.70
10869;BMP180;62667;48.698;8.762;2022-11-28T05:16:14;95563.00;;;3.60
10869;BMP180;62667;48.698;8.762;2022-11-28T05:18:40;95570.00;;;3.60
10869;BMP180;62667;48.698;8.762;2022-11-28T05:21:10;95569.00;;;3.70
10869;BMP180;62667;48.698;8.762;2022-11-28T05:23:37;95577.00;;;3.70
10869;BMP180;62667;48.698;8.762;2022-11-28T05:26:06;95574.00;;;3.70
10869;BMP180;62667;48.698;8.762;2022-11-28T05:28:32;95583.00;;;3.70
10869;BMP180;62667;48.698;8.762;2022-11-28T05:31:00;95574.00;;;3.70
10869;BMP180;62667;48.698;8.762;2022-11-28T05:33:28;95586.00;;;3.60
10869;BMP180;62667;48.698;8.762;2022-11-28T05:35:54;95593.00;;;3.70
10869;BMP180;62667;48.698;8.762;2022-11-28T05:38:21;95584.00;;;3.80
10869;BMP180;62667;48.698;8.762;2022-11-28T05:40:48;95584.00;;;3.70
10869;BMP180;62667;48.698;8.762;2022-11-28T05:43:15;95587.00;;;3.60
10869;BMP180;62667;48.698;8.762;2022-11-28T05:45:44;95584.00;;;3.60
10869;BMP180;62667;48.698;8.762;2022-11-28T05:48:11;95578.00;;;3.70
10869;BMP180;62667;48.698;8.762;2022-11-28T05:50:39;95587.00;;;3.70
10869;BMP180;62667;48.698;8.762;2022-11-28T05:53:05;95575.00;;;3.70
10869;BMP180;62667;48.698;8.762;2022-11-28T05:55:32;95566.00;;;3.70
10869;BMP180;62667;48.698;8.762;2022-11-28T05:57:58;95567.00;;;3.60
10869;BMP180;62667;48.698;8.762;2022-11-28T06:00:25;95571.00;;;3.60
10869;BMP180;62667;48.698;8.762;2022-11-28T06:02:52;95566.00;;;3.60
10869;BMP180;62667;48.698;8.762;2022-11-28T06:05:18;95577.00;;;3.50
10869;BMP180;62667;48.698;8.762;2022-11-28T06:07:45;95563.00;;;3.40
10869;BMP180;62667;48.698;8.762;2022-11-28T06:10:11;95569.00;;;3.40
10869;BMP180;62667;48.698;8.762;2022-11-28T06:12:37;95562.00;;;3.50
10869;BMP180;62667;48.698;8.762;2022-11-28T06:15:05;95566.00;;;3.50
10869;BMP180;62667;48.698;8.762;2022-11-28T06:17:32;95564.00;;;3.50
10869;BMP180;62667;48.698;8.762;2022-11-28T06:19:59;95562.00;;;3.50
10869;BMP180;62667;48.698;8.762;2022-11-28T06:22:25;95560.00;;;3.50
10869;BMP180;62667;48.698;8.762;2022-11-28T06:24:52;95561.00;;;3.50
10869;BMP180;62667;48.698;8.762;2022-11-28T06:27:18;95556.00;;;3.50
10869;BMP180;62667;48.698;8.762;2022-11-28T06:29:44;95558.00;;;3.60
10869;BMP180;62667;48.698;8.762;2022-11-28T06:32:11;95559.00;;;3.60
10869;BMP180;62667;48.698;8.762;2022-11-28T06:34:38;95561.00;;;3.60
10869;BMP180;62667;48.698;8.762;2022-11-28T06:37:04;95554.00;;;3.50
10869;BMP180;62667;48.698;8.762;2022-11-28T06:39:31;95571.00;;;3.40
10869;BMP180;62667;48.698;8.762;2022-11-28T06:41:57;95573.00;;;3.40
10869;BMP180;62667;48.698;8.762;2022-11-28T06:44:24;95572.00;;;3.40
10869;BMP180;62667;48.698;8.762;2022-11-28T06:46:50;95570.00;;;3.40
10869;BMP180;62667;48.698;8.762;2022-11-28T06:49:19;95587.00;;;3.40
10869;BMP180;62667;48.698;8.762;2022-11-28T06:51:46;95592.00;;;3.40
10869;BMP180;62667;48.698;8.762;2022-11-28T06:54:15;95597.00;;;3.40
10869;BMP180;62667;48.698;8.762;2022-11-28T06:56:41;95599.00;;;3.40
10869;BMP180;62667;48.698;8.762;2022-11-28T06:59:11;95597.00;;;3.40
10869;BMP180;62667;48.698;8.762;2022-11-28T07:01:37;95602.00;;;3.40
10869;BMP180;62667;48.698;8.762;2022-11-28T07:04:04;95595.00;;;3.50
10869;BMP180;62667;48.698;8.762;2022-11-28T07:06:33;95598.00;;;3.50
10869;BMP180;62667;48.698;8.762;2022-11-28T07:09:00;95592.00;;;3.50
10869;BMP180;62667;48.698;8.762;2022-11-28T07:11:29;95588.00;;;3.40
10869;BMP180;62667;48.698;8.762;2022-11-28T07:13:59;95592.00;;;3.50
10869;BMP180;62667;48.698;8.762;2022-11-28T07:16:28;95585.00;;;3.60
10869;BMP180;62667;48.698;8.762;2022-11-28T07:18:58;95578.00;;;3.80
10869;BMP180;62667;48.698;8.762;2022-11-28T07:21:26;95595.00;;;3.80
10869;BMP180;62667;48.698;8.762;2022-11-28T07:23:52;95586.00;;;3.80
10869;BMP180;62667;48.698;8.762;2022-11-28T07:26:20;95592.00;;;3.90
10869;BMP180;62667;48.698;8.762;2022-11-28T07:28:48;95608.00;;;3.90
10869;BMP180;62667;48.698;8.762;2022-11-28T07:31:17;95593.00;;;3.80
10869;BMP180;62667;48.698;8.762;2022-11-28T07:33:47;95589.00;;;3.80
10869;BMP180;62667;48.698;8.762;2022-11-28T07:36:16;95599.00;;;3.70
10869;BMP180;62667;48.698;8.762;2022-11-28T07:38:45;95602.00;;;3.70
10869;BMP180;62667;48.698;8.762;2022-11-28T07:41:13;95598.00;;;3.70
10869;BMP180;62667;48.698;8.762;2022-11-28T07:43:45;95601.00;;;3.80
10869;BMP180;62667;48.698;8.762;2022-11-28T07:46:17;95610.00;;;3.80
10869;BMP180;62667;48.698;8.762;2022-11-28T07:48:44;95586.00;;;3.80
10869;BMP180;62667;48.698;8.762;2022-11-28T07:51:17;95600.00;;;3.80
10869;BMP180;62667;48.698;8.762;2022-11-28T07:53:45;95597.00;;;3.80
10869;BMP180;62667;48.698;8.762;2022-11-28T07:56:17;95608.00;;;3.90
10869;BMP180;62667;48.698;8.762;2022-11-28T07:58:46;95605.00;;;3.80
10869;BMP180;62667;48.698;8.762;2022-11-28T08:01:18;95600.00;;;3.80
10869;BMP180;62667;48.698;8.762;2022-11-28T08:03:45;95605.00;;;4.10
10869;BMP180;62667;48.698;8.762;2022-11-28T08:06:16;95613.00;;;4.20
10869;BMP180;62667;48.698;8.762;2022-11-28T08:08:44;95619.00;;;4.50
10869;BMP180;62667;48.698;8.762;2022-11-28T08:11:13;95613.00;;;4.80
10869;BMP180;62667;48.698;8.762;2022-11-28T08:13:40;95610.00;;;4.80
10869;BMP180;62667;48.698;8.762;2022-11-28T08:16:11;95613.00;;;5.00
10869;BMP180;62667;48.698;8.762;2022-11-28T08:18:38;95617.00;;;5.00
10869;BMP180;62667;48.698;8.762;2022-11-28T08:21:07;95608.00;;;5.20
10869;BMP180;62667;48.698;8.762;2022-11-28T08:23:35;95611.00;;;5.20
10869;BMP180;62667;48.698;8.762;2022-11-28T08:26:02;95609.00;;;5.20
10869;BMP180;62667;48.698;8.762;2022-11-28T08:28:29;95604.00;;;5.30
10869;BMP180;62667;48.698;8.762;2022-11-28T08:30:58;95613.00;;;5.20
10869;BMP180;62667;48.698;8.762;2022-11-28T08:33:27;95609.00;;;5.40
10869;BMP180;62667;48.698;8.762;2022-11-28T08:35:54;95618.00;;;5.30
10869;BMP180;62667;48.698;8.762;2022-11-28T08:38:20;95618.00;;;5.30
10869;BMP180;62667;48.698;8.762;2022-11-28T08:40:49;95613.00;;;5.30
10869;BMP180;62667;48.698;8.762;2022-11-28T08:43:15;95599.00;;;5.30
10869;BMP180;62667;48.698;8.762;2022-11-28T08:45:42;95593.00;;;5.30
10869;BMP180;62667;48.698;8.762;2022-11-28T08:48:09;95590.00;;;5.40
10869;BMP180;62667;48.698;8.762;2022-11-28T08:50:36;95593.00;;;5.20
10869;BMP180;62667;48.698;8.762;2022-11-28T08:53:05;95595.00;;;5.10
10869;BMP180;62667;48.698;8.762;2022-11-28T08:55:31;95605.00;;;5.00
10869;BMP180;62667;48.698;8.762;2022-11-28T08:58:00;95605.00;;;5.10
10869;BMP180;62667;48.698;8.762;2022-11-28T09:00:27;95606.00;;;5.00
10869;BMP180;62667;48.698;8.762;2022-11-28T09:02:53;95611.00;;;4.90
10869;BMP180;62667;48.698;8.762;2022-11-28T09:05:19;95605.00;;;4.80
10869;BMP180;62667;48.698;8.762;2022-11-28T09:07:49;95616.00;;;4.70
10869;BMP180;62667;48.698;8.762;2022-11-28T09:10:15;95622.00;;;4.70
10869;BMP180;62667;48.698;8.762;2022-11-28T09:12:42;95615.00;;;4.70
10869;BMP180;62667;48.698;8.762;2022-11-28T09:15:09;95606.00;;;4.80
10869;BMP180;62667;48.698;8.762;2022-11-28T09:17:35;95616.00;;;5.00
10869;BMP180;62667;48.698;8.762;2022-11-28T09:20:06;95611.00;;;5.10
10869;BMP180;62667;48.698;8.762;2022-11-28T09:22:32;95617.00;;;5.20
10869;BMP180;62667;48.698;8.762;2022-11-28T09:24:59;95634.00;;;5.40
10869;BMP180;62667;48.698;8.762;2022-11-28T09:27:26;95613.00;;;5.50
10869;BMP180;62667;48.698;8.762;2022-11-28T09:29:52;95628.00;;;5.60
10869;BMP180;62667;48.698;8.762;2022-11-28T09:32:19;95618.00;;;5.60
10869;BMP180;62667;48.698;8.762;2022-11-28T09:34:45;95615.00;;;5.80
10869;BMP180;62667;48.698;8.762;2022-11-28T09:37:14;95614.00;;;5.90
10869;BMP180;62667;48.698;8.762;2022-11-28T09:39:41;95621.00;;;5.90
10869;BMP180;62667;48.698;8.762;2022-11-28T09:42:14;95607.00;;;6.00
10869;BMP180;62667;48.698;8.762;2022-11-28T09:44:48;95614.00;;;6.10
10869;BMP180;62667;48.698;8.762;2022-11-28T09:47:24;95609.00;;;6.20
10869;BMP180;62667;48.698;8.762;2022-11-28T09:49:56;95623.00;;;6.20
10869;BMP180;62667;48.698;8.762;2022-11-28T09:52:31;95622.00;;;6.30
10869;BMP180;62667;48.698;8.762;2022-11-28T09:55:11;95610.00;;;6.30
10869;BMP180;62667;48.698;8.762;2022-11-28T09:57:44;95602.00;;;6.40
10869;BMP180;62667;48.698;8.762;2022-11-28T10:00:16;95610.00;;;6.40
10869;BMP180;62667;48.698;8.762;2022-11-28T10:02:59;95608.00;;;6.40
10869;BMP180;62667;48.698;8.762;2022-11-28T10:05:36;95609.00;;;6.40
10869;BMP180;62667;48.698;8.762;2022-11-28T10:08:22;95611.00;;;6.30
10869;BMP180;62667;48.698;8.762;2022-11-28T10:11:00;95604.00;;;6.40
10869;BMP180;62667;48.698;8.762;2022-11-28T10:13:41;95605.00;;;6.50
10869;BMP180;62667;48.698;8.762;2022-11-28T10:16:18;95607.00;;;6.50
10869;BMP180;62667;48.698;8.762;2022-11-28T10:18:51;95598.00;;;6.60
10869;BMP180;62667;48.698;8.762;2022-11-28T10:21:28;95604.00;;;6.60
10869;BMP180;62667;48.698;8.762;2022-11-28T10:24:03;95597.00;;;6.60
10869;BMP180;62667;48.698;8.762;2022-11-28T10:26:37;95577.00;;;6.60
10869;BMP180;62667;48.698;8.762;2022-11-28T10:29:25;95604.00;;;6.60
10869;BMP180;62667;48.698;8.762;2022-11-28T10:32:00;95595.00;;;6.60
10869;BMP180;62667;48.698;8.762;2022-11-28T10:34:39;95598.00;;;6.60
10869;BMP180;62667;48.698;8.762;2022-11-28T10:37:16;95586.00;;;6.60
10869;BMP180;62667;48.698;8.762;2022-11-28T10:39:45;95588.00;;;6.60
10869;BMP180;62667;48.698;8.762;2022-11-28T10:42:18;95588.00;;;6.60
10869;BMP180;62667;48.698;8.762;2022-11-28T10:45:01;95577.00;;;6.50
10869;BMP180;62667;48.698;8.762;2022-11-28T10:48:02;95582.00;;;6.50
10869;BMP180;62667;48.698;8.762;2022-11-28T10:50:44;95580.00;;;6.40
10869;BMP180;62667;48.698;8.762;2022-11-28T10:53:24;95590.00;;;6.40
10869;BMP180;62667;48.698;8.762;2022-11-28T10:56:07;95589.00;;;6.50
10869;BMP180;62667;48.698;8.762;2022-11-28T10:58:46;95585.00;;;6.50
10869;BMP180;62667;48.698;8.762;2022-11-28T11:01:17;95583.00;;;6.60
10869;BMP180;62667;48.698;8.762;2022-11-28T11:03:44;95586.00;;;6.70
10869;BMP180;62667;48.698;8.762;2022-11-28T11:06:10;95583.00;;;6.60
10869;BMP180;62667;48.698;8.762;2022-11-28T11:08:39;95586.00;;;6.50
10869;BMP180;62667;48.698;8.762;2022-11-28T11:11:21;95586.00;;;6.50
10869;BMP180;62667;48.698;8.762;2022-11-28T11:13:59;95578.00;;;6.50
10869;BMP180;62667;48.698;8.762;2022-11-28T11:16:47;95587.00;;;6.60
10869;BMP180;62667;48.698;8.762;2022-11-28T11:19:24;95586.00;;;6.60
10869;BMP180;62667;48.698;8.762;2022-11-28T11:22:04;95581.00;;;6.70
10869;BMP180;62667;48.698;8.762;2022-11-28T11:24:31;95575.00;;;6.70
10869;BMP180;62667;48.698;8.762;2022-11-28T11:27:06;95566.00;;;6.70
10869;BMP180;62667;48.698;8.762;2022-11-28T11:29:39;95577.00;;;6.70
10869;BMP180;62667;48.698;8.762;2022-11-28T11:32:20;95578.00;;;6.70
10869;BMP180;62667;48.698;8.762;2022-11-28T11:34:52;95576.00;;;6.80
10869;BMP180;62667;48.698;8.762;2022-11-28T11:37:31;95567.00;;;6.80
10869;BMP180;62667;48.698;8.762;2022-11-28T11:40:01;95578.00;;;6.80
10869;BMP180;62667;48.698;8.762;2022-11-28T11:42:30;95570.00;;;6.90
10869;BMP180;62667;48.698;8.762;2022-11-28T11:45:26;95561.00;;;7.00
10869;BMP180;62667;48.698;8.762;2022-11-28T11:47:57;95562.00;;;7.10
10869;BMP180;62667;48.698;8.762;2022-11-28T11:50:28;95573.00;;;7.20
10869;BMP180;62667;48.698;8.762;2022-11-28T11:53:11;95565.00;;;7.20
10869;BMP180;62667;48.698;8.762;2022-11-28T11:55:46;95560.00;;;7.20
10869;BMP180;62667;48.698;8.762;2022-11-28T11:58:19;95564.00;;;7.30
10869;BMP180;62667;48.698;8.762;2022-11-28T12:00:47;95559.00;;;7.30
10869;BMP180;62667;48.698;8.762;2022-11-28T12:03:24;95543.00;;;7.30
10869;BMP180;62667;48.698;8.762;2022-11-28T12:05:55;95559.00;;;7.40
10869;BMP180;62667;48.698;8.762;2022-11-28T12:08:30;95560.00;;;7.40
10869;BMP180;62667;48.698;8.762;2022-11-28T12:11:11;95561.00;;;7.40
10869;BMP180;62667;48.698;8.762;2022-11-28T12:13:39;95569.00;;;7.40
10869;BMP180;62667;48.698;8.762;2022-11-28T12:16:28;95556.00;;;7.30
10869;BMP180;62667;48.698;8.762;2022-11-28T12:19:12;95555.00;;;7.30
10869;BMP180;62667;48.698;8.762;2022-11-28T12:21:59;95553.00;;;7.40
10869;BMP180;62667;48.698;8.762;2022-11-28T12:24:39;95549.00;;;7.40
10869;BMP180;62667;48.698;8.762;2022-11-28T12:27:22;95547.00;;;7.50
10869;BMP180;62667;48.698;8.762;2022-11-28T12:30:13;95541.00;;;7.50
10869;BMP180;62667;48.698;8.762;2022-11-28T12:32:52;95534.00;;;7.40
10869;BMP180;62667;48.698;8.762;2022-11-28T12:35:35;95528.00;;;7.40
10869;BMP180;62667;48.698;8.762;2022-11-28T12:38:18;95531.00;;;7.40
10869;BMP180;62667;48.698;8.762;2022-11-28T12:41:10;95520.00;;;7.40
10869;BMP180;62667;48.698;8.762;2022-11-28T12:43:52;95522.00;;;7.40
10869;BMP180;62667;48.698;8.762;2022-11-28T12:46:36;95519.00;;;7.50
10869;BMP180;62667;48.698;8.762;2022-11-28T12:49:15;95525.00;;;7.50
10869;BMP180;62667;48.698;8.762;2022-11-28T12:51:59;95510.00;;;7.60
10869;BMP180;62667;48.698;8.762;2022-11-28T12:54:46;95510.00;;;7.70
10869;BMP180;62667;48.698;8.762;2022-11-28T12:57:26;95510.00;;;7.70
10869;BMP180;62667;48.698;8.762;2022-11-28T13:00:04;95516.00;;;7.90
10869;BMP180;62667;48.698;8.762;2022-11-28T13:02:46;95512.00;;;8.00
10869;BMP180;62667;48.698;8.762;2022-11-28T13:05:31;95502.00;;;8.00
10869;BMP180;62667;48.698;8.762;2022-11-28T13:08:41;95509.00;;;8.00
10869;BMP180;62667;48.698;8.762;2022-11-28T13:11:25;95508.00;;;8.00
10869;BMP180;62667;48.698;8.762;2022-11-28T13:14:03;95509.00;;;7.90
10869;BMP180;62667;48.698;8.762;2022-11-28T13:16:39;95502.00;;;7.90
10869;BMP180;62667;48.698;8.762;2022-11-28T13:19:13;95511.00;;;7.90
10869;BMP180;62667;48.698;8.762;2022-11-28T13:21:57;95515.00;;;7.90
10869;BMP180;62667;48.698;8.762;2022-11-28T13:24:34;95507.00;;;7.90
10869;BMP180;62667;48.698;8.762;2022-11-28T13:27:10;95505.00;;;7.80
10869;BMP180;62667;48.698;8.762;2022-11-28T13:29:46;95515.00;;;8.00
10869;BMP180;62667;48.698;8.762;2022-11-28T13:32:28;95510.00;;;7.80
10869;BMP180;62667;48.698;8.762;2022-11-28T13:35:01;95512.00;;;7.90
10869;BMP180;62667;48.698;8.762;2022-11-28T13:37:38;95510.00;;;7.90
10869;BMP180;62667;48.698;8.762;2022-11-28T13:40:17;95499.00;;;8.00
10869;BMP180;62667;48.698;8.762;2022-11-28T13:42:51;95507.00;;;8.00
10869;BMP180;62667;48.698;8.762;2022-11-28T13:45:24;95509.00;;;7.90
10869;BMP180;62667;48.698;8.762;2022-11-28T13:47:52;95509.00;;;7.90
10869;BMP180;62667;48.698;8.762;2022-11-28T13:50:39;95508.00;;;7.80
10869;BMP180;62667;48.698;8.762;2022-11-28T13:53:22;95510.00;;;7.90
10869;BMP180;62667;48.698;8.762;2022-11-28T13:55:52;95517.00;;;7.90
10869;BMP180;62667;48.698;8.762;2022-11-28T13:58:33;95507.00;;;8.00
10869;BMP180;62667;48.698;8.762;2022-11-28T14:01:10;95513.00;;;7.90
10869;BMP180;62667;48.698;8.762;2022-11-28T14:03:47;95508.00;;;7.90
10869;BMP180;62667;48.698;8.762;2022-11-28T14:06:18;95510.00;;;7.50
10869;BMP180;62667;48.698;8.762;2022-11-28T14:09:01;95501.00;;;7.70
10869;BMP180;62667;48.698;8.762;2022-11-28T14:12:00;95507.00;;;7.70
10869;BMP180;62667;48.698;8.762;2022-11-28T14:14:59;95507.00;;;7.60
10869;BMP180;62667;48.698;8.762;2022-11-28T14:17:49;95516.00;;;7.50
10869;BMP180;62667;48.698;8.762;2022-11-28T14:20:29;95507.00;;;7.60
10869;BMP180;62667;48.698;8.762;2022-11-28T14:23:15;95511.00;;;7.60
10869;BMP180;62667;48.698;8.762;2022-11-28T14:25:48;95519.00;;;7.50
10869;BMP180;62667;48.698;8.762;2022-11-28T14:28:22;95506.00;;;7.50
10869;BMP180;62667;48.698;8.762;2022-11-28T14:30:51;95514.00;;;7.60
10869;BMP180;62667;48.698;8.762;2022-11-28T14:33:24;95512.00;;;7.50
10869;BMP180;62667;48.698;8.762;2022-11-28T14:36:31;95521.00;;;7.50
10869;BMP180;62667;48.698;8.762;2022-11-28T14:42:33;95524.00;;;7.50
10869;BMP180;62667;48.698;8.762;2022-11-28T14:45:42;95526.00;;;7.50
10869;BMP180;62667;48.698;8.762;2022-11-28T14:48:18;95524.00;;;7.30
10869;BMP180;62667;48.698;8.762;2022-11-28T14:50:52;95520.00;;;7.30
10869;BMP180;62667;48.698;8.762;2022-11-28T14:53:43;95516.00;;;7.30
10869;BMP180;62667;48.698;8.762;2022-11-28T14:56:24;95522.00;;;7.20
10869;BMP180;62667;48.698;8.762;2022-11-28T14:58:57;95527.00;;;7.10
10869;BMP180;62667;48.698;8.762;2022-11-28T15:01:43;95526.00;;;7.00